Time;durP1;ratioP1;P1;durP2;ratioP2;P2;SDS_P1;SDS_P2;PMS_P1;PMS_P2;Temp;Humidity;BMP_temperature;BMP_pressure;BME280_temperature;BME280_humidity;BME280_pressure;Samples;Min_cycle;Max_cycle;Signal;HPM_P1;HPM_P2
2021/12/17 00:02:58;;;;;;;19.95;10.40;;;;;;;3.96;89.47;97872.16;1757892;80;21099;-83
2021/12/17 00:04:51;;;;;;;19.62;10.25;;;;;;;3.98;89.66;97879.31;1758271;80;21015;-83
2021/12/17 00:07:11;;;;;;;13.35;8.63;;;;;;;4.01;89.38;97877.81;1763383;80;21079;-83
2021/12/17 00:09:37;;;;;;;12.30;9.00;;;;;;;4.01;89.19;97882.13;1775448;80;21509;-82
2021/12/17 00:12:09;;;;;;;13.62;8.25;;;;;;;3.97;89.41;97871.70;1765437;80;21098;-84
2021/12/17 00:14:37;;;;;;;16.75;8.58;;;;;;;3.94;89.59;97877.06;1774921;80;21058;-83
2021/12/17 00:17:03;;;;;;;16.77;9.30;;;;;;;3.90;89.37;97877.27;1779208;80;21055;-83
2021/12/17 00:19:57;;;;;;;19.80;8.85;;;;;;;3.93;89.80;97883.95;1784028;80;21043;-83
2021/12/17 00:49:25;;;;;;;18.40;11.10;;;;;;;3.91;89.84;97869.91;1773993;79;21031;-83
2021/12/17 00:52:01;;;;;;;19.15;11.45;;;;;;;3.90;89.89;97866.13;1780095;80;21031;-83
2021/12/17 00:54:36;;;;;;;19.62;11.20;;;;;;;3.90;89.77;97862.27;1750906;80;21078;-83
2021/12/17 00:57:08;;;;;;;16.93;9.15;;;;;;;3.91;89.91;97867.80;1773752;80;21177;-83
2021/12/17 00:59:34;;;;;;;17.95;9.63;;;;;;;3.93;89.72;97874.13;1746021;80;21103;-83
2021/12/17 01:02:04;;;;;;;17.75;10.75;;;;;;;3.95;89.85;97864.09;1763433;80;21104;-83
2021/12/17 01:04:30;;;;;;;17.48;9.50;;;;;;;3.96;89.97;97865.73;1778892;80;21437;-83
2021/12/17 01:06:56;;;;;;;17.27;9.60;;;;;;;3.96;89.96;97864.91;1779173;80;21031;-83
2021/12/17 01:09:26;;;;;;;22.62;10.43;;;;;;;3.93;89.80;97868.52;1776729;80;21000;-83
2021/12/17 01:11:54;;;;;;;14.90;9.40;;;;;;;3.89;89.84;97860.16;1772107;80;21011;-83
2021/12/17 01:14:20;;;;;;;17.12;9.63;;;;;;;3.89;89.70;97861.45;1753144;80;21442;-82
2021/12/17 01:16:47;;;;;;;16.27;10.08;;;;;;;3.91;89.31;97870.38;1772258;80;21039;-83
2021/12/17 01:19:25;;;;;;;15.13;9.90;;;;;;;3.91;89.53;97878.91;1764129;80;21028;-83
2021/12/17 01:22:44;;;;;;;16.77;9.38;;;;;;;3.93;89.73;97880.56;1765238;80;21134;-82
2021/12/17 01:42:52;;;;;;;18.95;9.23;;;;;;;3.89;89.52;97855.48;1763426;80;21608;-83
2021/12/17 01:45:18;;;;;;;22.48;13.13;;;;;;;3.91;89.56;97850.63;1763984;80;21158;-82
2021/12/17 01:47:44;;;;;;;16.93;9.63;;;;;;;3.86;89.37;97838.98;1747978;80;21174;-83
2021/12/17 01:56:04;;;;;;;15.50;10.93;;;;;;;3.87;89.45;97838.06;1747686;80;21127;-83
2021/12/17 02:01:05;;;;;;;17.27;9.48;;;;;;;3.86;89.66;97826.13;1778364;80;20980;-83
2021/12/17 02:03:31;;;;;;;17.35;8.73;;;;;;;3.86;89.74;97829.98;1779655;80;21049;-83
2021/12/17 02:05:59;;;;;;;15.95;9.28;;;;;;;3.81;89.41;97834.63;1780935;80;21060;-83
2021/12/17 02:08:25;;;;;;;15.05;9.05;;;;;;;3.81;89.55;97834.63;1774363;80;21027;-83
2021/12/17 02:32:13;;;;;;;15.13;9.95;;;;;;;3.79;89.66;97808.20;1756233;80;21470;-83
2021/12/17 02:37:28;;;;;;;17.15;10.25;;;;;;;3.79;90.01;97804.34;1768736;80;21012;-83
2021/12/17 02:47:41;;;;;;;17.02;9.10;;;;;;;3.68;89.81;97814.06;1772814;80;21028;-83
2021/12/17 02:50:10;;;;;;;15.08;10.90;;;;;;;3.70;90.04;97820.39;1778547;80;21059;-83
2021/12/17 02:52:37;;;;;;;18.70;10.00;;;;;;;3.73;90.02;97811.17;1765999;79;21004;-83
2021/12/17 02:55:05;;;;;;;13.62;9.20;;;;;;;3.77;90.27;97810.06;1753922;80;21046;-83
2021/12/17 02:57:31;;;;;;;11.43;7.97;;;;;;;3.80;90.24;97815.81;1768416;80;21039;-83
2021/12/17 02:59:57;;;;;;;17.30;10.30;;;;;;;3.78;90.14;97818.95;1779325;80;21075;-83
2021/12/17 03:02:25;;;;;;;16.37;10.45;;;;;;;3.74;90.21;97817.52;1773672;80;21035;-83
2021/12/17 03:04:50;;;;;;;20.32;9.50;;;;;;;3.73;90.26;97806.85;1777942;80;20992;-83
2021/12/17 03:07:16;;;;;;;20.92;10.28;;;;;;;3.74;90.36;97811.09;1766518;80;20999;-83
2021/12/17 03:12:34;;;;;;;18.05;9.85;;;;;;;3.78;90.33;97804.81;1768738;80;21366;-83
2021/12/17 03:15:04;;;;;;;16.60;10.03;;;;;;;3.78;90.44;97804.81;1766349;80;21119;-83
2021/12/17 03:25:06;;;;;;;19.05;10.72;;;;;;;3.65;89.89;97812.17;1758119;80;21044;-82
2021/12/17 03:27:32;;;;;;;15.45;9.53;;;;;;;3.63;90.05;97812.74;1761365;79;21131;-83
2021/12/17 03:29:58;;;;;;;14.55;8.85;;;;;;;3.64;90.05;97812.64;1772085;80;21422;-83
2021/12/17 03:32:23;;;;;;;14.13;9.88;;;;;;;3.60;89.94;97804.31;1760524;80;21084;-83
2021/12/17 03:34:51;;;;;;;7.67;6.05;;;;;;;3.59;90.12;97798.81;1751230;80;21462;-82
2021/12/17 03:37:16;;;;;;;18.20;9.53;;;;;;;3.59;89.99;97794.14;1774957;80;20976;-83
2021/12/17 03:39:43;;;;;;;15.08;8.63;;;;;;;3.53;89.66;97795.82;1755475;80;21031;-82
2021/12/17 03:42:09;;;;;;;16.32;9.60;;;;;;;3.53;89.99;97796.64;1778791;80;20996;-83
2021/12/17 03:44:36;;;;;;;19.62;9.25;;;;;;;3.54;89.93;97793.14;1750413;80;21027;-83
2021/12/17 03:47:03;;;;;;;12.05;9.85;;;;;;;3.53;89.79;97792.78;1755657;80;21039;-83
2021/12/17 03:49:30;;;;;;;17.40;8.30;;;;;;;3.55;89.96;97791.39;1778274;80;21083;-82
2021/12/17 03:52:05;;;;;;;16.35;9.45;;;;;;;3.53;89.84;97789.39;1779545;80;21007;-83
2021/12/17 03:54:33;;;;;;;18.17;10.05;;;;;;;3.53;90.00;97788.11;1762859;79;21082;-83
2021/12/17 03:57:00;;;;;;;17.40;10.68;;;;;;;3.53;90.28;97786.36;1759025;80;21062;-83
2021/12/17 03:59:26;;;;;;;16.45;9.88;;;;;;;3.55;90.17;97792.22;1771282;80;21004;-83
2021/12/17 04:01:52;;;;;;;18.62;9.28;;;;;;;3.53;89.96;97787.64;1768800;80;21094;-82
2021/12/17 04:04:18;;;;;;;17.65;8.63;;;;;;;3.54;89.99;97780.76;1766926;80;21098;-84
2021/12/17 04:06:44;;;;;;;16.02;8.15;;;;;;;3.54;89.79;97781.58;1774590;80;21062;-83
2021/12/17 04:09:10;;;;;;;14.78;8.05;;;;;;;3.53;89.68;97780.40;1778309;80;21031;-83
2021/12/17 04:11:36;;;;;;;15.88;8.45;;;;;;;3.52;89.85;97786.00;1738860;80;21386;-83
2021/12/17 04:14:02;;;;;;;20.30;8.88;;;;;;;3.54;90.11;97789.29;1756438;80;21035;-83
2021/12/17 04:16:31;;;;;;;12.07;8.23;;;;;;;3.53;89.80;97785.54;1774521;79;21417;-83
2021/12/17 04:18:58;;;;;;;15.25;7.65;;;;;;;3.50;89.80;97785.29;1771932;80;21127;-83
2021/12/17 04:21:24;;;;;;;15.53;6.28;;;;;;;3.49;89.55;97782.83;1760389;80;21018;-83
2021/12/17 04:23:50;;;;;;;12.65;6.45;;;;;;;3.51;89.52;97780.97;1763511;80;21042;-83
2021/12/17 04:26:17;;;;;;;9.75;5.92;;;;;;;3.52;89.45;97773.62;1740842;80;21020;-83
2021/12/17 04:28:47;;;;;;;12.15;6.72;;;;;;;3.50;89.32;97784.00;1762438;80;21437;-83
2021/12/17 04:31:12;;;;;;;13.28;6.70;;;;;;;3.47;89.36;97777.80;1767991;80;21425;-83
2021/12/17 04:33:39;;;;;;;13.75;6.35;;;;;;;3.45;89.34;97780.94;1757447;80;21023;-83
2021/12/17 04:36:06;;;;;;;14.98;6.35;;;;;;;3.40;89.21;97788.11;1763445;80;21138;-83
2021/12/17 04:38:32;;;;;;;12.65;6.15;;;;;;;3.38;89.24;97788.67;1781145;80;21378;-83
2021/12/17 04:41:18;;;;;;;15.53;6.80;;;;;;;3.38;89.17;97784.00;1760176;80;21043;-83
2021/12/17 04:43:48;;;;;;;12.07;7.12;;;;;;;3.39;89.29;97775.36;1780468;80;21043;-83
2021/12/17 04:46:17;;;;;;;12.37;6.25;;;;;;;3.40;89.09;97776.55;1763454;80;21408;-83
2021/12/17 04:59:28;;;;;;;14.40;6.33;;;;;;;3.33;88.54;97771.94;1780684;80;21295;-83
2021/12/17 05:01:53;;;;;;;13.32;6.92;;;;;;;3.31;88.76;97783.60;1765318;80;21074;-84
2021/12/17 05:04:20;;;;;;;14.55;6.72;;;;;;;3.28;88.86;97776.10;1770169;80;21000;-83
2021/12/17 05:06:45;;;;;;;16.40;8.03;;;;;;;3.27;89.13;97767.58;1771039;80;21011;-84
2021/12/17 05:09:24;;;;;;;14.38;6.92;;;;;;;3.29;89.42;97771.33;1759633;80;21394;-83
2021/12/17 05:19:52;;;;;;;14.65;7.70;;;;;;;3.31;88.95;97767.72;1760620;80;21027;-83
2021/12/17 05:22:18;;;;;;;13.58;7.20;;;;;;;3.30;88.81;97767.36;1768627;80;21012;-83
2021/12/17 05:24:44;;;;;;;19.10;8.80;;;;;;;3.25;88.38;97755.73;1779474;80;21039;-84
2021/12/17 05:27:10;;;;;;;12.25;6.60;;;;;;;3.21;88.66;97770.53;1767708;80;20992;-84
2021/12/17 05:29:36;;;;;;;10.75;8.15;;;;;;;3.18;88.29;97769.92;1749479;80;21035;-83
2021/12/17 05:32:02;;;;;;;14.38;8.33;;;;;;;3.17;88.73;97765.25;1717327;80;21007;-83
2021/12/17 05:34:28;;;;;;;13.93;8.33;;;;;;;3.20;88.72;97759.08;1749653;81;21000;-84
2021/12/17 05:36:53;;;;;;;15.78;6.95;;;;;;;3.25;88.94;97761.72;1765138;80;21069;-83
2021/12/17 05:39:19;;;;;;;15.58;6.95;;;;;;;3.25;88.28;97756.59;1749247;80;21079;-83
2021/12/17 05:41:45;;;;;;;18.17;8.20;;;;;;;3.24;88.57;97764.36;1752132;80;21015;-83
2021/12/17 05:44:14;;;;;;;19.75;10.53;;;;;;;3.20;88.65;97770.64;1782402;80;21058;-83
2021/12/17 05:46:51;;;;;;;17.23;8.15;;;;;;;3.17;88.96;97760.11;1777552;80;21003;-83
2021/12/17 05:49:22;;;;;;;13.90;7.28;;;;;;;3.21;89.02;97756.87;1761786;80;21091;-83
2021/12/17 05:51:49;;;;;;;16.95;7.58;;;;;;;3.27;89.05;97759.05;1754815;80;21000;-83
2021/12/17 05:54:15;;;;;;;14.58;7.72;;;;;;;3.26;88.62;97771.53;1776672;79;20983;-84
2021/12/17 05:56:40;;;;;;;12.37;6.92;;;;;;;3.23;88.73;97775.10;1764237;80;21042;-83
2021/12/17 05:59:06;;;;;;;13.13;7.83;;;;;;;3.21;88.36;97782.09;1764890;80;21074;-83
2021/12/17 06:01:32;;;;;;;18.73;9.48;;;;;;;3.19;88.38;97789.55;1757053;80;21010;-83
2021/12/17 06:03:59;;;;;;;13.98;7.03;;;;;;;3.17;87.65;97786.26;1768189;80;21070;-83
2021/12/17 06:06:32;;;;;;;13.58;7.53;;;;;;;3.19;87.98;97790.83;1751534;80;21394;-83
2021/12/17 06:09:00;;;;;;;13.28;7.25;;;;;;;3.24;88.00;97788.77;1755037;80;21013;-83
2021/12/17 06:11:25;;;;;;;13.20;6.80;;;;;;;3.21;87.76;97792.37;1764667;80;21083;-83
2021/12/17 06:13:51;;;;;;;14.55;6.15;;;;;;;3.20;87.82;97784.77;1760433;80;21095;-83
2021/12/17 06:16:17;;;;;;;15.10;6.90;;;;;;;3.14;87.32;97783.44;1780790;80;21031;-83
2021/12/17 06:18:43;;;;;;;12.68;5.72;;;;;;;3.12;87.22;97787.03;1765253;80;20979;-83
2021/12/17 06:21:08;;;;;;;10.58;6.00;;;;;;;3.13;87.42;97797.20;1781060;80;21027;-83
2021/12/17 06:23:34;;;;;;;11.73;6.78;;;;;;;3.15;87.13;97803.52;1764735;80;21377;-83
2021/12/17 06:26:00;;;;;;;11.93;6.60;;;;;;;3.13;86.92;97810.05;1760055;80;21090;-84
2021/12/17 06:28:26;;;;;;;14.50;6.97;;;;;;;3.13;87.26;97810.05;1775471;80;21062;-83
2021/12/17 06:30:52;;;;;;;13.75;5.80;;;;;;;3.09;87.24;97816.31;1780445;80;21076;-83
2021/12/17 06:33:18;;;;;;;12.35;6.87;;;;;;;3.08;87.38;97821.52;1759794;79;21441;-83
2021/12/17 06:35:43;;;;;;;10.55;4.75;;;;;;;3.11;87.47;97818.78;1754220;80;21047;-83
2021/12/17 06:38:09;;;;;;;12.40;6.67;;;;;;;3.09;86.33;97823.16;1780753;80;21098;-83
2021/12/17 06:40:35;;;;;;;8.88;4.42;;;;;;;3.06;86.53;97820.34;1775310;80;21067;-83
2021/12/17 06:43:00;;;;;;;12.45;5.47;;;;;;;3.09;86.38;97821.87;1780815;80;21552;-83
2021/12/17 06:48:04;;;;;;;12.73;7.30;;;;;;;3.00;86.01;97828.45;1711167;83;21047;-83
2021/12/17 07:01:17;;;;;;;16.20;7.92;;;;;;;3.08;86.76;97813.81;1776321;79;21429;-83
2021/12/17 07:22:03;;;;;;;13.28;6.55;;;;;;;3.03;86.51;97813.30;1781038;80;21054;-82
2021/12/17 07:32:43;;;;;;;17.15;8.15;;;;;;;2.94;86.06;97803.19;1714124;83;21477;-82
2021/12/17 07:40:08;;;;;;;17.48;8.80;;;;;;;3.00;86.07;97807.91;1769055;80;21418;-82
2021/12/17 07:42:34;;;;;;;16.82;8.43;;;;;;;2.96;85.84;97811.14;1778704;80;21068;-82
2021/12/17 07:45:00;;;;;;;20.45;7.67;;;;;;;2.97;86.22;97806.37;1763854;80;21063;-83
2021/12/17 07:47:26;;;;;;;15.70;8.33;;;;;;;3.00;86.06;97809.19;1763726;80;20995;-82
2021/12/17 07:49:52;;;;;;;14.55;6.87;;;;;;;2.98;85.83;97811.86;1775670;80;21019;-82
2021/12/17 07:52:18;;;;;;;12.35;6.15;;;;;;;3.00;84.62;97817.72;1752951;80;21027;-82
2021/12/17 07:54:43;;;;;;;16.80;7.20;;;;;;;2.95;85.02;97822.80;1772159;80;21031;-82
2021/12/17 07:57:09;;;;;;;11.00;5.72;;;;;;;2.90;85.06;97819.22;1770926;80;21043;-82
2021/12/17 07:59:35;;;;;;;7.85;5.60;;;;;;;2.88;85.38;97839.04;1772318;80;21383;-82
2021/12/17 08:02:01;;;;;;;15.43;5.78;;;;;;;2.84;84.92;97822.20;1765647;80;20988;-83
2021/12/17 08:04:27;;;;;;;16.73;6.53;;;;;;;2.84;84.64;97823.48;1772545;80;21044;-83
2021/12/17 08:06:53;;;;;;;12.03;6.17;;;;;;;2.84;84.92;97811.92;1770441;79;21043;-82
2021/12/17 08:09:20;;;;;;;10.45;5.47;;;;;;;2.87;85.26;97822.00;1753118;80;21016;-82
2021/12/17 08:11:46;;;;;;;13.28;5.45;;;;;;;2.89;85.00;97812.45;1757116;80;21015;-82
2021/12/17 08:14:15;;;;;;;16.20;7.00;;;;;;;2.89;85.01;97811.16;1778718;80;21030;-83
2021/12/17 08:16:55;;;;;;;13.03;6.17;;;;;;;2.88;84.98;97806.95;1759156;79;21202;-82
2021/12/17 08:27:30;;;;;;;14.30;6.62;;;;;;;2.92;84.54;97807.11;1732541;80;21059;-82
2021/12/17 08:30:19;;;;;;;17.50;7.58;;;;;;;2.94;84.92;97805.29;1768046;79;21862;-82
2021/12/17 08:32:22;;;;;;;20.00;9.33;;;;;;;2.93;85.15;97803.64;1776020;80;21019;-82
2021/12/17 08:34:48;;;;;;;17.20;10.55;;;;;;;2.92;85.06;97803.25;1773154;80;21016;-82
2021/12/17 08:37:14;;;;;;;19.98;11.33;;;;;;;2.94;85.52;97808.32;1752535;80;21109;-82
2021/12/17 08:39:39;;;;;;;20.80;10.75;;;;;;;2.93;85.80;97814.37;1779116;79;21130;-82
2021/12/17 08:42:07;;;;;;;20.65;11.05;;;;;;;2.95;85.70;97824.91;1767446;80;21048;-82
2021/12/17 08:44:33;;;;;;;20.00;10.88;;;;;;;2.96;85.61;97821.41;1759514;80;21039;-82
2021/12/17 08:46:58;;;;;;;15.35;10.10;;;;;;;2.97;85.47;97827.38;1779143;80;20992;-82
2021/12/17 08:49:25;;;;;;;22.25;10.65;;;;;;;3.00;85.51;97820.28;1761685;80;21011;-82
2021/12/17 08:51:51;;;;;;;15.60;8.53;;;;;;;3.05;85.80;97814.02;1754553;80;21409;-82
2021/12/17 08:54:16;;;;;;;14.53;6.85;;;;;;;3.03;85.08;97819.26;1770358;80;21535;-82
2021/12/17 08:56:47;;;;;;;15.00;7.37;;;;;;;3.00;85.15;97826.70;1768072;80;21087;-82
2021/12/17 08:59:14;;;;;;;15.85;7.70;;;;;;;2.98;84.87;97820.84;1763429;80;21019;-82
2021/12/17 09:01:41;;;;;;;16.73;8.83;;;;;;;3.02;84.96;97829.17;1771319;80;21034;-82
2021/12/17 09:04:06;;;;;;;12.78;7.42;;;;;;;3.03;84.81;97829.99;1775372;80;21092;-82
2021/12/17 09:06:32;;;;;;;13.18;6.85;;;;;;;3.05;84.92;97838.41;1779300;80;21096;-82
2021/12/17 09:08:58;;;;;;;12.33;6.90;;;;;;;3.04;84.61;97844.02;1773720;80;21070;-82
2021/12/17 09:11:28;;;;;;;12.50;6.90;;;;;;;3.01;84.76;97849.35;1776528;80;21071;-82
2021/12/17 09:13:57;;;;;;;14.98;8.28;;;;;;;3.02;85.21;97852.28;1765690;80;21106;-82
2021/12/17 09:16:23;;;;;;;16.00;7.67;;;;;;;3.03;84.98;97844.94;1774045;80;21011;-82
2021/12/17 09:18:53;;;;;;;12.13;6.53;;;;;;;3.01;84.79;97850.17;1761946;80;20989;-82
2021/12/17 09:21:19;;;;;;;15.58;7.35;;;;;;;3.03;84.58;97851.36;1769257;80;21082;-83
2021/12/17 09:23:44;;;;;;;15.23;8.18;;;;;;;3.05;84.58;97855.11;1749258;80;21390;-83
2021/12/17 09:26:11;;;;;;;13.72;7.15;;;;;;;3.04;84.63;97850.44;1777770;80;21023;-82
2021/12/17 09:28:37;;;;;;;14.60;7.50;;;;;;;3.05;84.89;97844.84;1782284;80;21100;-82
2021/12/17 09:31:05;;;;;;;9.85;6.05;;;;;;;3.06;85.01;97845.20;1764397;79;21111;-82
2021/12/17 09:33:33;;;;;;;13.43;6.80;;;;;;;3.03;84.77;97841.55;1767767;80;21493;-82
2021/12/17 09:35:59;;;;;;;16.90;8.40;;;;;;;3.00;84.78;97841.29;1766904;80;21004;-82
2021/12/17 09:38:24;;;;;;;13.60;7.50;;;;;;;2.98;84.69;97840.11;1758138;80;21442;-82
2021/12/17 09:40:50;;;;;;;14.07;8.50;;;;;;;3.03;84.97;97837.70;1753693;80;21004;-82
2021/12/17 09:43:16;;;;;;;12.07;7.40;;;;;;;3.05;85.13;97834.10;1758407;80;21047;-82
2021/12/17 09:45:42;;;;;;;15.40;8.55;;;;;;;3.09;85.38;97830.87;1763898;80;21090;-82
2021/12/17 09:48:08;;;;;;;18.45;8.88;;;;;;;3.09;84.79;97832.15;1762844;80;20984;-82
2021/12/17 09:50:34;;;;;;;19.35;9.30;;;;;;;3.05;84.77;97832.82;1777991;80;21019;-82
2021/12/17 09:53:00;;;;;;;15.88;8.40;;;;;;;3.06;85.02;97829.79;1774414;80;21458;-82
2021/12/17 09:55:27;;;;;;;15.15;8.55;;;;;;;3.13;85.10;97824.63;1763264;80;21035;-82
2021/12/17 09:57:53;;;;;;;15.98;9.08;;;;;;;3.16;85.22;97830.38;1751482;81;21055;-82
2021/12/17 10:00:22;;;;;;;16.45;8.78;;;;;;;3.16;84.53;97823.14;1768566;80;21057;-82
2021/12/17 10:02:48;;;;;;;19.62;8.48;;;;;;;3.13;84.23;97821.59;1759836;80;21016;-82
2021/12/17 10:05:21;;;;;;;18.25;8.98;;;;;;;3.09;84.03;97829.58;1767943;80;21051;-82
2021/12/17 10:07:55;;;;;;;;;;;;;;;3.06;84.11;97828.50;1782419;80;21521;-82
2021/12/17 10:10:20;;;;;;;14.13;8.20;;;;;;;3.02;84.60;97822.75;1758161;80;20075;-82
2021/12/17 10:12:47;;;;;;;15.35;8.35;;;;;;;2.99;84.09;97817.36;1761186;80;21381;-82
2021/12/17 10:15:17;;;;;;;17.87;8.88;;;;;;;2.99;84.17;97812.22;1772362;80;21023;-82
2021/12/17 10:18:03;;;;;;;14.80;8.45;;;;;;;3.01;84.12;97806.98;1773149;80;21031;-82
2021/12/17 10:20:36;;;;;;;14.78;8.75;;;;;;;3.01;84.23;97803.13;1768989;80;20981;-81
2021/12/17 10:23:07;;;;;;;17.50;9.10;;;;;;;3.00;84.38;97812.58;1768479;80;21038;-82
2021/12/17 10:25:35;;;;;;;16.50;8.85;;;;;;;3.03;84.75;97808.98;1779315;80;21459;-82
2021/12/17 10:28:05;;;;;;;14.85;8.48;;;;;;;3.03;84.32;97810.73;1773815;80;21115;-82
2021/12/17 10:30:40;;;;;;;15.13;9.63;;;;;;;3.01;84.13;97811.66;1757847;80;21446;-82
2021/12/17 10:33:10;;;;;;;19.17;8.98;;;;;;;3.00;83.96;97813.87;1762212;80;21418;-82
2021/12/17 10:35:43;;;;;;;11.28;7.45;;;;;;;3.02;83.95;97811.20;1772548;80;21406;-82
2021/12/17 10:38:10;;;;;;;13.50;8.65;;;;;;;3.03;83.37;97815.88;1774045;79;21055;-82
2021/12/17 10:40:42;;;;;;;12.10;6.70;;;;;;;3.05;83.27;97816.59;1764925;80;21012;-82
2021/12/17 10:43:21;;;;;;;8.45;5.37;;;;;;;3.05;83.60;97816.59;1755752;80;21040;-82
2021/12/17 10:45:59;;;;;;;11.88;5.95;;;;;;;3.06;83.37;97812.63;1770357;80;21035;-82
2021/12/17 10:51:13;;;;;;;14.73;7.87;;;;;;;3.00;83.29;97797.17;1758590;80;21431;-82
2021/12/17 10:53:38;;;;;;;16.40;6.92;;;;;;;3.05;82.88;97795.58;1762485;80;21063;-82
2021/12/17 10:56:04;;;;;;;11.80;6.85;;;;;;;3.08;82.76;97791.98;1779501;80;21035;-82
2021/12/17 10:58:30;;;;;;;13.68;6.50;;;;;;;3.09;82.07;97793.63;1768095;80;21083;-82
2021/12/17 11:01:01;;;;;;;11.25;5.87;;;;;;;3.08;82.59;97783.82;1759909;80;21000;-82
2021/12/17 11:03:26;;;;;;;9.88;5.83;;;;;;;3.09;82.22;97774.37;1761498;80;21034;-82
2021/12/17 11:05:52;;;;;;;12.07;6.08;;;;;;;3.06;82.61;97780.53;1756490;80;21004;-82
2021/12/17 11:08:24;;;;;;;11.60;7.03;;;;;;;3.06;82.33;97774.58;1733495;81;20992;-82
2021/12/17 11:10:57;;;;;;;13.93;8.70;;;;;;;3.08;82.86;97781.25;1739915;80;21094;-82
2021/12/17 11:13:19;;;;;;;15.70;7.97;;;;;;;3.11;82.67;97777.69;1735712;80;21079;-82
2021/12/17 11:15:45;;;;;;;16.40;8.80;;;;;;;3.15;82.59;97780.41;1755418;80;20987;-82
2021/12/17 11:18:11;;;;;;;11.97;7.78;;;;;;;3.13;82.22;97778.41;1774459;80;21036;-82
2021/12/17 11:20:39;;;;;;;16.67;8.48;;;;;;;3.11;82.75;97778.97;1764195;80;21380;-82
2021/12/17 11:23:10;;;;;;;14.03;7.65;;;;;;;3.12;82.98;97772.45;1751866;80;21037;-82
2021/12/17 11:25:37;;;;;;;16.20;8.55;;;;;;;3.12;83.29;97780.61;1759717;80;21597;-81
2021/12/17 11:28:05;;;;;;;12.78;7.97;;;;;;;3.12;83.13;97778.05;1773597;80;21016;-82
2021/12/17 11:30:32;;;;;;;15.13;8.10;;;;;;;3.16;83.44;97767.45;1769314;80;20996;-82
2021/12/17 11:33:01;;;;;;;18.05;9.70;;;;;;;3.21;83.34;97769.25;1776369;80;21008;-82
2021/12/17 11:35:26;;;;;;;19.82;10.63;;;;;;;3.27;83.42;97774.00;1771646;80;21058;-82
2021/12/17 11:37:57;;;;;;;21.17;11.00;;;;;;;3.27;83.54;97774.46;1774757;80;21087;-82
2021/12/17 11:40:32;;;;;;;16.05;9.15;;;;;;;3.29;83.77;97779.03;1753346;79;21055;-82
2021/12/17 11:43:15;;;;;;;16.40;8.88;;;;;;;3.28;83.59;97776.10;1752399;80;21019;-82
2021/12/17 11:45:40;;;;;;;17.42;8.73;;;;;;;3.24;82.97;97784.91;1774318;80;21036;-82
2021/12/17 11:48:22;;;;;;;17.70;8.18;;;;;;;3.19;83.32;97781.38;1777881;80;21366;-82
2021/12/17 11:51:08;;;;;;;14.53;8.00;;;;;;;3.20;83.30;97768.89;1778316;80;21019;-82
2021/12/17 11:53:57;;;;;;;11.60;6.85;;;;;;;3.23;83.01;97776.38;1772749;80;21143;-82
2021/12/17 11:56:40;;;;;;;13.78;8.75;;;;;;;3.23;82.95;97767.39;1752101;80;21020;-82
2021/12/17 11:59:10;;;;;;;15.90;7.60;;;;;;;3.23;83.20;97766.11;1763533;80;21155;-83
2021/12/17 12:02:17;;;;;;;14.60;7.75;;;;;;;3.22;83.15;97768.78;1765236;80;21036;-82
2021/12/17 12:04:59;;;;;;;15.88;9.40;;;;;;;3.23;83.50;97771.71;1772736;80;20952;-82
2021/12/17 12:07:28;;;;;;;;;;;;;;;3.21;83.17;97767.96;1774836;80;21039;-82
2021/12/17 12:10:19;;;;;;;14.47;9.38;;;;;;;3.17;83.14;97756.72;1772591;80;20142;-82
2021/12/17 12:12:51;;;;;;;13.80;9.28;;;;;;;3.17;83.15;97765.25;1755648;80;21024;-82
2021/12/17 12:15:23;;;;;;;15.50;10.08;;;;;;;3.20;83.19;97765.03;1764417;79;21027;-82
2021/12/17 12:18:07;;;;;;;20.12;9.98;;;;;;;3.24;82.94;97765.19;1747562;80;21115;-80
2021/12/17 12:20:47;;;;;;;17.37;10.05;;;;;;;3.27;82.99;97753.45;1769934;80;21052;-82
2021/12/17 12:23:40;;;;;;;17.75;10.80;;;;;;;3.27;83.17;97750.05;1776011;80;21083;-82
2021/12/17 12:26:17;;;;;;;12.73;8.83;;;;;;;3.27;82.91;97757.77;1778464;80;20976;-82
2021/12/17 12:28:59;;;;;;;19.98;12.33;;;;;;;3.21;82.97;97758.16;1773215;80;21113;-82
2021/12/17 12:31:37;;;;;;;24.32;12.78;;;;;;;3.22;83.51;97752.91;1755289;80;21358;-82
2021/12/17 12:34:12;;;;;;;15.70;9.33;;;;;;;3.26;83.45;97745.84;1763929;80;21012;-82
2021/12/17 12:37:10;;;;;;;13.25;8.88;;;;;;;3.27;83.02;97747.48;1773967;80;20995;-82
2021/12/17 12:39:57;;;;;;;16.52;8.75;;;;;;;3.23;82.86;97746.84;1778715;80;21481;-82
2021/12/17 12:42:26;;;;;;;19.40;9.48;;;;;;;3.14;82.50;97745.37;1780202;80;20992;-82
2021/12/17 12:45:02;;;;;;;13.20;10.08;;;;;;;3.10;82.96;97755.50;1750897;80;21445;-82
2021/12/17 12:47:37;;;;;;;17.85;9.80;;;;;;;3.09;83.10;97757.67;1763951;80;20996;-82
2021/12/17 12:50:07;;;;;;;15.40;9.08;;;;;;;3.07;83.01;97758.24;1769026;80;21047;-82
2021/12/17 12:52:38;;;;;;;14.90;9.00;;;;;;;3.03;82.75;97752.49;1759154;80;21102;-82
2021/12/17 12:55:15;;;;;;;13.43;8.58;;;;;;;3.01;82.39;97762.87;1765986;80;21007;-82
2021/12/17 12:57:48;;;;;;;15.93;9.55;;;;;;;3.00;81.85;97761.69;1764424;79;21043;-81
2021/12/17 13:00:21;;;;;;;18.50;9.88;;;;;;;2.99;82.00;97761.33;1747725;80;21091;-82
2021/12/17 13:02:55;;;;;;;18.32;10.03;;;;;;;2.98;82.08;97757.94;1747895;80;21426;-82
2021/12/17 13:05:22;;;;;;;18.40;10.55;;;;;;;2.96;82.79;97757.22;1777563;80;21067;-81
2021/12/17 13:07:54;;;;;;;15.85;9.15;;;;;;;2.94;82.65;97750.55;1760540;80;21067;-81
2021/12/17 13:10:28;;;;;;;14.18;8.08;;;;;;;2.91;82.38;97749.44;1757379;80;21759;-82
2021/12/17 13:24:14;;;;;;;22.10;12.55;;;;;;;2.97;82.55;97757.58;1780558;80;20996;-81
2021/12/17 13:26:49;;;;;;;20.32;14.00;;;;;;;2.95;82.74;97745.77;1765446;80;21351;-82
2021/12/17 13:29:33;;;;;;;23.32;13.05;;;;;;;2.93;83.15;97756.14;1751794;80;21019;-82
2021/12/17 13:32:09;;;;;;;21.80;11.50;;;;;;;2.93;83.06;97760.00;1761340;80;21008;-82
2021/12/17 13:34:48;;;;;;;19.05;11.50;;;;;;;2.96;82.84;97762.36;1776184;80;20995;-82
2021/12/17 13:37:24;;;;;;;24.67;14.20;;;;;;;2.95;82.39;97762.47;1776353;80;21026;-82
2021/12/17 13:40:07;;;;;;;21.82;13.43;;;;;;;2.90;82.68;97765.31;1754197;80;21053;-82
2021/12/17 13:42:39;;;;;;;28.07;16.07;;;;;;;2.83;81.95;97741.44;1770711;80;21020;-82
2021/12/17 13:45:09;;;;;;;21.95;14.70;;;;;;;2.84;82.74;97745.19;1781158;80;21141;-81
2021/12/17 13:47:42;;;;;;;20.55;13.85;;;;;;;2.83;83.00;97745.28;1780664;80;21019;-82
2021/12/17 13:50:21;;;;;;;18.17;10.93;;;;;;;2.82;82.61;97756.48;1770287;79;21492;-81
2021/12/17 13:52:53;;;;;;;18.00;12.82;;;;;;;2.79;82.35;97751.09;1779808;80;21437;-81
2021/12/17 13:55:32;;;;;;;17.65;10.68;;;;;;;2.80;82.29;97760.43;1759958;80;21088;-82
2021/12/17 13:58:00;;;;;;;20.15;13.00;;;;;;;2.82;82.22;97766.28;1767299;80;21972;-82
2021/12/17 14:00:36;;;;;;;26.65;13.68;;;;;;;2.79;82.17;97765.20;1756924;80;21505;-82
2021/12/17 14:03:03;;;;;;;20.50;12.37;;;;;;;2.79;82.18;97770.34;1780609;80;21202;-81
2021/12/17 14:05:40;;;;;;;20.80;12.47;;;;;;;2.78;82.09;97762.28;1776797;80;21477;-82
2021/12/17 14:08:00;;;;;;;22.65;14.58;;;;;;;2.75;82.08;97761.17;1758277;80;21031;-82
2021/12/17 14:10:31;;;;;;;22.37;11.50;;;;;;;2.75;82.49;97765.02;1749506;80;21057;-81
2021/12/17 14:12:58;;;;;;;22.15;12.43;;;;;;;2.77;81.76;97767.05;1749640;80;21405;-82
2021/12/17 14:15:28;;;;;;;22.20;14.18;;;;;;;2.78;82.07;97761.00;1758862;80;21162;-81
2021/12/17 14:18:04;;;;;;;21.15;12.78;;;;;;;2.81;82.29;97759.51;1762540;80;21478;-82
2021/12/17 14:20:48;;;;;;;21.10;12.13;;;;;;;2.84;82.31;97765.72;1780907;80;21151;-81
2021/12/17 14:23:19;;;;;;;22.15;11.75;;;;;;;2.83;82.18;97746.11;1768509;80;21043;-82
2021/12/17 14:25:57;;;;;;;21.97;12.80;;;;;;;2.84;82.17;97761.87;1764015;79;20996;-82
2021/12/17 14:28:25;;;;;;;17.00;10.48;;;;;;;2.84;82.25;97770.03;1770140;80;21023;-82
2021/12/17 14:31:00;;;;;;;18.50;11.45;;;;;;;2.83;82.37;97760.69;1760108;80;21154;-82
2021/12/17 14:33:39;;;;;;;17.75;10.68;;;;;;;2.81;82.06;97765.11;1776538;80;21062;-82
2021/12/17 14:36:17;;;;;;;23.05;11.75;;;;;;;2.78;81.99;97762.74;1774057;80;20991;-82
2021/12/17 14:39:14;;;;;;;21.00;11.70;;;;;;;2.80;82.09;97759.15;1769089;80;21062;-82
2021/12/17 14:41:59;;;;;;;19.85;12.05;;;;;;;2.85;82.17;97762.23;1768393;80;21012;-81
2021/12/17 14:47:11;;;;;;;23.50;13.30;;;;;;;2.81;81.66;97767.67;1780537;80;21013;-81
2021/12/17 15:00:25;;;;;;;20.88;12.18;;;;;;;2.74;82.12;97756.14;1776368;80;21003;-82